sensor_id;sensor_type;location;lat;lon;timestamp;temperature;humidity
74178;DHT22;62540;48.456;-4.456;2023-05-10T00:02:23;14.19;73.98
74178;DHT22;62540;48.456;-4.456;2023-05-10T00:04:48;14.16;73.98
74178;DHT22;62540;48.456;-4.456;2023-05-10T00:07:13;14.18;74.10
74178;DHT22;62540;48.456;-4.456;2023-05-10T00:09:39;14.19;74.36
74178;DHT22;62540;48.456;-4.456;2023-05-10T00:12:05;14.19;74.06
74178;DHT22;62540;48.456;-4.456;2023-05-10T00:14:30;14.16;74.29
74178;DHT22;62540;48.456;-4.456;2023-05-10T00:16:56;14.15;74.22
74178;DHT22;62540;48.456;-4.456;2023-05-10T00:19:22;14.10;74.44
74178;DHT22;62540;48.456;-4.456;2023-05-10T00:21:47;14.09;74.19
74178;DHT22;62540;48.456;-4.456;2023-05-10T00:24:12;14.06;74.18
74178;DHT22;62540;48.456;-4.456;2023-05-10T00:26:38;14.06;74.36
74178;DHT22;62540;48.456;-4.456;2023-05-10T00:29:03;14.05;74.08
74178;DHT22;62540;48.456;-4.456;2023-05-10T00:31:29;14.02;74.25
74178;DHT22;62540;48.456;-4.456;2023-05-10T00:33:54;13.99;74.33
74178;DHT22;62540;48.456;-4.456;2023-05-10T00:36:20;14.02;74.09
74178;DHT22;62540;48.456;-4.456;2023-05-10T00:38:46;14.02;73.93
74178;DHT22;62540;48.456;-4.456;2023-05-10T00:41:11;14.06;73.84
74178;DHT22;62540;48.456;-4.456;2023-05-10T00:43:36;14.06;73.81
74178;DHT22;62540;48.456;-4.456;2023-05-10T00:46:02;14.08;73.79
74178;DHT22;62540;48.456;-4.456;2023-05-10T00:48:28;14.06;73.75
74178;DHT22;62540;48.456;-4.456;2023-05-10T00:50:54;14.05;73.91
74178;DHT22;62540;48.456;-4.456;2023-05-10T00:53:19;14.01;74.17
74178;DHT22;62540;48.456;-4.456;2023-05-10T00:55:45;14.05;74.09
74178;DHT22;62540;48.456;-4.456;2023-05-10T00:58:10;14.05;74.17
74178;DHT22;62540;48.456;-4.456;2023-05-10T01:00:37;14.06;74.12
74178;DHT22;62540;48.456;-4.456;2023-05-10T01:03:06;14.12;74.46
74178;DHT22;62540;48.456;-4.456;2023-05-10T01:05:32;14.06;74.52
74178;DHT22;62540;48.456;-4.456;2023-05-10T01:07:57;14.08;74.48
74178;DHT22;62540;48.456;-4.456;2023-05-10T01:10:22;14.08;74.46
74178;DHT22;62540;48.456;-4.456;2023-05-10T01:12:48;14.09;74.42
74178;DHT22;62540;48.456;-4.456;2023-05-10T01:15:14;14.10;74.48
74178;DHT22;62540;48.456;-4.456;2023-05-10T01:17:43;14.06;74.63
74178;DHT22;62540;48.456;-4.456;2023-05-10T01:20:10;14.04;74.82
74178;DHT22;62540;48.456;-4.456;2023-05-10T01:28:47;14.13;74.70
74178;DHT22;62540;48.456;-4.456;2023-05-10T01:33:58;14.19;74.56
74178;DHT22;62540;48.456;-4.456;2023-05-10T01:36:32;14.18;74.64
74178;DHT22;62540;48.456;-4.456;2023-05-10T01:39:14;14.16;74.83
74178;DHT22;62540;48.456;-4.456;2023-05-10T01:41:54;14.19;74.63
74178;DHT22;62540;48.456;-4.456;2023-05-10T01:44:35;14.19;74.69
74178;DHT22;62540;48.456;-4.456;2023-05-10T01:47:16;14.22;74.58
74178;DHT22;62540;48.456;-4.456;2023-05-10T01:49:53;14.18;74.84
74178;DHT22;62540;48.456;-4.456;2023-05-10T01:52:25;14.19;75.03
74178;DHT22;62540;48.456;-4.456;2023-05-10T01:55:14;14.19;75.09
74178;DHT22;62540;48.456;-4.456;2023-05-10T01:57:43;14.18;75.25
74178;DHT22;62540;48.456;-4.456;2023-05-10T02:00:10;14.22;75.50
74178;DHT22;62540;48.456;-4.456;2023-05-10T02:02:38;14.20;75.63
74178;DHT22;62540;48.456;-4.456;2023-05-10T02:05:06;14.19;75.93
74178;DHT22;62540;48.456;-4.456;2023-05-10T02:07:34;14.18;75.71
74178;DHT22;62540;48.456;-4.456;2023-05-10T02:10:02;14.18;75.46
74178;DHT22;62540;48.456;-4.456;2023-05-10T02:12:28;14.22;75.52
74178;DHT22;62540;48.456;-4.456;2023-05-10T02:14:54;14.22;75.47
74178;DHT22;62540;48.456;-4.456;2023-05-10T02:17:21;14.19;75.40
74178;DHT22;62540;48.456;-4.456;2023-05-10T02:19:47;14.18;75.55
74178;DHT22;62540;48.456;-4.456;2023-05-10T02:22:13;14.18;75.22
74178;DHT22;62540;48.456;-4.456;2023-05-10T02:24:41;14.18;75.02
74178;DHT22;62540;48.456;-4.456;2023-05-10T02:27:07;14.22;75.16
74178;DHT22;62540;48.456;-4.456;2023-05-10T02:29:35;14.18;75.05
74178;DHT22;62540;48.456;-4.456;2023-05-10T02:32:02;14.15;75.17
74178;DHT22;62540;48.456;-4.456;2023-05-10T02:34:28;14.12;75.17
74178;DHT22;62540;48.456;-4.456;2023-05-10T02:36:55;14.09;75.21
74178;DHT22;62540;48.456;-4.456;2023-05-10T02:39:22;14.09;75.42
74178;DHT22;62540;48.456;-4.456;2023-05-10T02:41:50;14.06;75.48
74178;DHT22;62540;48.456;-4.456;2023-05-10T02:44:18;14.08;75.53
74178;DHT22;62540;48.456;-4.456;2023-05-10T02:46:45;14.09;75.63
74178;DHT22;62540;48.456;-4.456;2023-05-10T02:49:11;14.10;75.82
74178;DHT22;62540;48.456;-4.456;2023-05-10T02:51:41;14.09;75.70
74178;DHT22;62540;48.456;-4.456;2023-05-10T02:54:11;14.13;75.80
74178;DHT22;62540;48.456;-4.456;2023-05-10T02:56:42;14.13;75.81
74178;DHT22;62540;48.456;-4.456;2023-05-10T02:59:12;14.16;75.83
74178;DHT22;62540;48.456;-4.456;2023-05-10T03:01:37;14.19;75.81
74178;DHT22;62540;48.456;-4.456;2023-05-10T03:04:03;14.19;76.00
74178;DHT22;62540;48.456;-4.456;2023-05-10T03:06:28;14.19;75.90
74178;DHT22;62540;48.456;-4.456;2023-05-10T03:08:54;14.18;76.02
74178;DHT22;62540;48.456;-4.456;2023-05-10T03:11:47;14.22;75.83
74178;DHT22;62540;48.456;-4.456;2023-05-10T03:17:23;14.25;75.90
74178;DHT22;62540;48.456;-4.456;2023-05-10T03:19:54;14.20;76.22
74178;DHT22;62540;48.456;-4.456;2023-05-10T03:22:31;14.20;76.34
74178;DHT22;62540;48.456;-4.456;2023-05-10T03:24:57;14.27;76.10
74178;DHT22;62540;48.456;-4.456;2023-05-10T03:27:26;14.26;76.44
74178;DHT22;62540;48.456;-4.456;2023-05-10T03:29:53;14.25;76.30
74178;DHT22;62540;48.456;-4.456;2023-05-10T03:32:19;14.25;76.32
74178;DHT22;62540;48.456;-4.456;2023-05-10T03:34:44;14.27;76.53
74178;DHT22;62540;48.456;-4.456;2023-05-10T03:37:09;14.25;76.51
74178;DHT22;62540;48.456;-4.456;2023-05-10T03:39:35;14.25;76.50
74178;DHT22;62540;48.456;-4.456;2023-05-10T03:42:00;14.32;76.40
74178;DHT22;62540;48.456;-4.456;2023-05-10T03:44:26;14.29;76.38
74178;DHT22;62540;48.456;-4.456;2023-05-10T03:46:51;14.29;76.30
74178;DHT22;62540;48.456;-4.456;2023-05-10T03:49:16;14.25;76.55
74178;DHT22;62540;48.456;-4.456;2023-05-10T03:51:42;14.26;76.34
74178;DHT22;62540;48.456;-4.456;2023-05-10T03:54:07;14.25;76.43
74178;DHT22;62540;48.456;-4.456;2023-05-10T03:56:33;14.22;76.37
74178;DHT22;62540;48.456;-4.456;2023-05-10T03:58:58;14.29;76.39
74178;DHT22;62540;48.456;-4.456;2023-05-10T04:01:23;14.26;76.47
74178;DHT22;62540;48.456;-4.456;2023-05-10T04:03:49;14.30;76.59
74178;DHT22;62540;48.456;-4.456;2023-05-10T04:06:14;14.34;76.25
74178;DHT22;62540;48.456;-4.456;2023-05-10T04:08:40;14.36;76.17
74178;DHT22;62540;48.456;-4.456;2023-05-10T04:11:10;14.36;76.10
74178;DHT22;62540;48.456;-4.456;2023-05-10T04:13:36;14.36;76.13
74178;DHT22;62540;48.456;-4.456;2023-05-10T04:16:01;14.33;76.26
74178;DHT22;62540;48.456;-4.456;2023-05-10T04:18:27;14.32;76.29
74178;DHT22;62540;48.456;-4.456;2023-05-10T04:20:52;14.39;76.25
74178;DHT22;62540;48.456;-4.456;2023-05-10T04:23:18;14.39;76.21
74178;DHT22;62540;48.456;-4.456;2023-05-10T04:25:43;14.39;76.08
74178;DHT22;62540;48.456;-4.456;2023-05-10T04:28:09;14.39;76.10
74178;DHT22;62540;48.456;-4.456;2023-05-10T04:30:34;14.43;75.97
74178;DHT22;62540;48.456;-4.456;2023-05-10T04:33:00;14.39;75.91
74178;DHT22;62540;48.456;-4.456;2023-05-10T04:35:27;14.40;75.95
74178;DHT22;62540;48.456;-4.456;2023-05-10T04:37:53;14.40;75.84
74178;DHT22;62540;48.456;-4.456;2023-05-10T04:40:19;14.40;75.76
74178;DHT22;62540;48.456;-4.456;2023-05-10T04:42:44;14.37;75.75
74178;DHT22;62540;48.456;-4.456;2023-05-10T04:45:10;14.40;75.72
74178;DHT22;62540;48.456;-4.456;2023-05-10T04:47:35;14.37;75.92
74178;DHT22;62540;48.456;-4.456;2023-05-10T04:50:03;14.30;76.11
74178;DHT22;62540;48.456;-4.456;2023-05-10T04:52:28;14.33;76.02
74178;DHT22;62540;48.456;-4.456;2023-05-10T04:54:54;14.34;75.87
74178;DHT22;62540;48.456;-4.456;2023-05-10T04:57:19;14.41;75.85
74178;DHT22;62540;48.456;-4.456;2023-05-10T04:59:45;14.41;75.80
74178;DHT22;62540;48.456;-4.456;2023-05-10T05:02:10;14.39;75.77
74178;DHT22;62540;48.456;-4.456;2023-05-10T05:04:35;14.40;75.74
74178;DHT22;62540;48.456;-4.456;2023-05-10T05:07:01;14.39;75.74
74178;DHT22;62540;48.456;-4.456;2023-05-10T05:09:26;14.36;75.79
74178;DHT22;62540;48.456;-4.456;2023-05-10T05:11:52;14.34;75.80
74178;DHT22;62540;48.456;-4.456;2023-05-10T05:14:17;14.36;75.71
74178;DHT22;62540;48.456;-4.456;2023-05-10T05:16:43;14.34;75.68
74178;DHT22;62540;48.456;-4.456;2023-05-10T05:19:08;14.29;75.84
74178;DHT22;62540;48.456;-4.456;2023-05-10T05:21:33;14.25;75.91
74178;DHT22;62540;48.456;-4.456;2023-05-10T05:23:59;14.26;75.94
74178;DHT22;62540;48.456;-4.456;2023-05-10T05:26:26;14.27;76.00
74178;DHT22;62540;48.456;-4.456;2023-05-10T05:28:51;14.25;76.13
74178;DHT22;62540;48.456;-4.456;2023-05-10T05:31:19;14.29;76.03
74178;DHT22;62540;48.456;-4.456;2023-05-10T05:33:45;14.30;75.91
74178;DHT22;62540;48.456;-4.456;2023-05-10T05:36:11;14.30;76.08
74178;DHT22;62540;48.456;-4.456;2023-05-10T05:38:36;14.33;76.03
74178;DHT22;62540;48.456;-4.456;2023-05-10T05:41:01;14.37;76.02
74178;DHT22;62540;48.456;-4.456;2023-05-10T05:43:28;14.39;75.99
74178;DHT22;62540;48.456;-4.456;2023-05-10T05:45:53;14.41;76.14
74178;DHT22;62540;48.456;-4.456;2023-05-10T05:48:19;14.40;76.11
74178;DHT22;62540;48.456;-4.456;2023-05-10T05:50:45;14.39;76.13
74178;DHT22;62540;48.456;-4.456;2023-05-10T05:53:10;14.43;76.14
74178;DHT22;62540;48.456;-4.456;2023-05-10T05:55:36;14.46;76.25
74178;DHT22;62540;48.456;-4.456;2023-05-10T05:58:01;14.48;76.42
74178;DHT22;62540;48.456;-4.456;2023-05-10T06:00:27;14.48;76.33
74178;DHT22;62540;48.456;-4.456;2023-05-10T06:02:52;14.54;76.22
74178;DHT22;62540;48.456;-4.456;2023-05-10T06:05:18;14.59;76.12
74178;DHT22;62540;48.456;-4.456;2023-05-10T06:07:43;14.66;76.11
74178;DHT22;62540;48.456;-4.456;2023-05-10T06:10:09;14.73;76.06
74178;DHT22;62540;48.456;-4.456;2023-05-10T06:12:35;14.70;76.02
74178;DHT22;62540;48.456;-4.456;2023-05-10T06:15:00;14.74;75.95
74178;DHT22;62540;48.456;-4.456;2023-05-10T06:17:26;14.78;76.04
74178;DHT22;62540;48.456;-4.456;2023-05-10T06:19:51;14.84;76.06
74178;DHT22;62540;48.456;-4.456;2023-05-10T06:22:17;14.94;75.99
74178;DHT22;62540;48.456;-4.456;2023-05-10T06:24:42;15.02;75.94
74178;DHT22;62540;48.456;-4.456;2023-05-10T06:27:08;15.01;75.95
74178;DHT22;62540;48.456;-4.456;2023-05-10T06:29:34;15.05;75.95
74178;DHT22;62540;48.456;-4.456;2023-05-10T06:31:59;15.05;75.89
74178;DHT22;62540;48.456;-4.456;2023-05-10T06:34:25;14.99;76.14
74178;DHT22;62540;48.456;-4.456;2023-05-10T06:36:50;14.95;76.22
74178;DHT22;62540;48.456;-4.456;2023-05-10T06:39:16;14.92;75.70
74178;DHT22;62540;48.456;-4.456;2023-05-10T06:41:42;14.88;75.65
74178;DHT22;62540;48.456;-4.456;2023-05-10T06:44:07;14.87;75.76
74178;DHT22;62540;48.456;-4.456;2023-05-10T06:46:33;14.84;75.29
74178;DHT22;62540;48.456;-4.456;2023-05-10T06:48:59;14.85;75.45
74178;DHT22;62540;48.456;-4.456;2023-05-10T06:51:24;14.87;75.41
74178;DHT22;62540;48.456;-4.456;2023-05-10T06:53:50;14.85;74.98
74178;DHT22;62540;48.456;-4.456;2023-05-10T06:56:15;14.87;75.35
74178;DHT22;62540;48.456;-4.456;2023-05-10T06:58:40;14.87;74.94
74178;DHT22;62540;48.456;-4.456;2023-05-10T07:01:06;14.89;74.90
74178;DHT22;62540;48.456;-4.456;2023-05-10T07:03:31;14.95;75.20
74178;DHT22;62540;48.456;-4.456;2023-05-10T07:06:03;14.99;75.03
74178;DHT22;62540;48.456;-4.456;2023-05-10T07:08:32;15.04;74.83
74178;DHT22;62540;48.456;-4.456;2023-05-10T07:11:05;15.15;74.68
74178;DHT22;62540;48.456;-4.456;2023-05-10T07:13:33;15.25;74.88
74178;DHT22;62540;48.456;-4.456;2023-05-10T07:16:00;15.31;74.39
74178;DHT22;62540;48.456;-4.456;2023-05-10T07:18:25;15.31;74.36
74178;DHT22;62540;48.456;-4.456;2023-05-10T07:20:51;15.26;74.63
74178;DHT22;62540;48.456;-4.456;2023-05-10T07:23:17;15.24;74.67
74178;DHT22;62540;48.456;-4.456;2023-05-10T07:25:49;15.26;74.81
74178;DHT22;62540;48.456;-4.456;2023-05-10T07:28:16;15.36;75.14
74178;DHT22;62540;48.456;-4.456;2023-05-10T07:30:42;15.46;75.24
74178;DHT22;62540;48.456;-4.456;2023-05-10T07:33:09;15.62;75.14
74178;DHT22;62540;48.456;-4.456;2023-05-10T07:35:35;15.69;75.02
74178;DHT22;62540;48.456;-4.456;2023-05-10T07:38:01;15.82;75.16
74178;DHT22;62540;48.456;-4.456;2023-05-10T07:40:27;15.93;74.97
74178;DHT22;62540;48.456;-4.456;2023-05-10T07:42:53;15.98;74.33
74178;DHT22;62540;48.456;-4.456;2023-05-10T07:45:18;16.14;74.20
74178;DHT22;62540;48.456;-4.456;2023-05-10T07:47:43;16.33;73.92
74178;DHT22;62540;48.456;-4.456;2023-05-10T07:50:09;16.61;72.61
74178;DHT22;62540;48.456;-4.456;2023-05-10T07:52:34;16.84;72.62
74178;DHT22;62540;48.456;-4.456;2023-05-10T07:55:00;17.07;71.56
74178;DHT22;62540;48.456;-4.456;2023-05-10T07:57:25;17.32;70.76
74178;DHT22;62540;48.456;-4.456;2023-05-10T07:59:51;17.61;69.25
74178;DHT22;62540;48.456;-4.456;2023-05-10T08:02:16;17.86;69.51
74178;DHT22;62540;48.456;-4.456;2023-05-10T08:04:41;18.09;68.14
74178;DHT22;62540;48.456;-4.456;2023-05-10T08:07:07;18.33;65.95
74178;DHT22;62540;48.456;-4.456;2023-05-10T08:09:32;18.58;66.56
74178;DHT22;62540;48.456;-4.456;2023-05-10T08:11:58;18.84;68.03
74178;DHT22;62540;48.456;-4.456;2023-05-10T08:14:25;19.04;66.23
74178;DHT22;62540;48.456;-4.456;2023-05-10T08:16:50;19.23;64.23
74178;DHT22;62540;48.456;-4.456;2023-05-10T08:19:16;19.52;65.96
74178;DHT22;62540;48.456;-4.456;2023-05-10T08:21:45;19.60;63.70
74178;DHT22;62540;48.456;-4.456;2023-05-10T08:24:10;19.81;63.39
74178;DHT22;62540;48.456;-4.456;2023-05-10T08:26:36;19.94;62.39
74178;DHT22;62540;48.456;-4.456;2023-05-10T08:29:02;19.97;62.78
74178;DHT22;62540;48.456;-4.456;2023-05-10T08:31:27;20.01;62.52
74178;DHT22;62540;48.456;-4.456;2023-05-10T08:33:52;20.38;62.69
74178;DHT22;62540;48.456;-4.456;2023-05-10T08:36:18;21.00;63.42
74178;DHT22;62540;48.456;-4.456;2023-05-10T08:38:49;21.23;60.89
74178;DHT22;62540;48.456;-4.456;2023-05-10T08:41:15;21.37;60.46
74178;DHT22;62540;48.456;-4.456;2023-05-10T08:43:41;21.26;59.54
74178;DHT22;62540;48.456;-4.456;2023-05-10T08:46:15;21.21;60.77
74178;DHT22;62540;48.456;-4.456;2023-05-10T08:48:43;21.20;59.64
74178;DHT22;62540;48.456;-4.456;2023-05-10T08:51:09;21.10;58.80
74178;DHT22;62540;48.456;-4.456;2023-05-10T08:53:38;20.86;58.37
74178;DHT22;62540;48.456;-4.456;2023-05-10T08:56:04;20.66;58.83
74178;DHT22;62540;48.456;-4.456;2023-05-10T08:58:29;20.45;59.64
74178;DHT22;62540;48.456;-4.456;2023-05-10T09:00:56;20.26;59.23
74178;DHT22;62540;48.456;-4.456;2023-05-10T09:03:22;20.11;59.86
74178;DHT22;62540;48.456;-4.456;2023-05-10T09:05:48;20.00;60.49
74178;DHT22;62540;48.456;-4.456;2023-05-10T09:08:14;20.02;60.07
74178;DHT22;62540;48.456;-4.456;2023-05-10T09:10:43;19.95;60.05
74178;DHT22;62540;48.456;-4.456;2023-05-10T09:13:10;19.93;61.27
74178;DHT22;62540;48.456;-4.456;2023-05-10T09:15:36;20.01;60.88
74178;DHT22;62540;48.456;-4.456;2023-05-10T09:18:02;20.01;59.94
74178;DHT22;62540;48.456;-4.456;2023-05-10T09:20:28;20.08;59.99
74178;DHT22;62540;48.456;-4.456;2023-05-10T09:22:53;20.21;59.36
74178;DHT22;62540;48.456;-4.456;2023-05-10T09:25:19;20.32;60.50
74178;DHT22;62540;48.456;-4.456;2023-05-10T09:27:46;20.66;59.57
74178;DHT22;62540;48.456;-4.456;2023-05-10T09:30:38;21.01;57.89
74178;DHT22;62540;48.456;-4.456;2023-05-10T09:33:03;21.27;58.66
74178;DHT22;62540;48.456;-4.456;2023-05-10T09:35:33;21.55;57.36
74178;DHT22;62540;48.456;-4.456;2023-05-10T09:38:04;21.62;57.53
74178;DHT22;62540;48.456;-4.456;2023-05-10T09:40:30;21.57;57.29
74178;DHT22;62540;48.456;-4.456;2023-05-10T09:43:05;21.48;56.00
74178;DHT22;62540;48.456;-4.456;2023-05-10T09:45:34;21.42;57.31
74178;DHT22;62540;48.456;-4.456;2023-05-10T09:48:01;21.44;56.13
74178;DHT22;62540;48.456;-4.456;2023-05-10T09:50:28;21.41;56.67
74178;DHT22;62540;48.456;-4.456;2023-05-10T09:52:56;21.52;55.56
74178;DHT22;62540;48.456;-4.456;2023-05-10T09:55:38;21.54;55.18
74178;DHT22;62540;48.456;-4.456;2023-05-10T09:58:04;21.61;54.77
74178;DHT22;62540;48.456;-4.456;2023-05-10T10:00:36;21.72;54.77
74178;DHT22;62540;48.456;-4.456;2023-05-10T10:03:03;21.72;52.85
74178;DHT22;62540;48.456;-4.456;2023-05-10T10:07:57;21.58;54.88
74178;DHT22;62540;48.456;-4.456;2023-05-10T10:10:24;21.62;52.29
74178;DHT22;62540;48.456;-4.456;2023-05-10T10:12:49;21.57;54.52
74178;DHT22;62540;48.456;-4.456;2023-05-10T10:15:15;21.74;55.48
74178;DHT22;62540;48.456;-4.456;2023-05-10T10:17:43;21.92;53.25
74178;DHT22;62540;48.456;-4.456;2023-05-10T10:20:09;21.82;54.72
74178;DHT22;62540;48.456;-4.456;2023-05-10T10:22:34;21.89;54.91
74178;DHT22;62540;48.456;-4.456;2023-05-10T10:25:01;22.23;52.99
74178;DHT22;62540;48.456;-4.456;2023-05-10T10:30:37;22.51;50.24
74178;DHT22;62540;48.456;-4.456;2023-05-10T10:33:18;22.43;50.97
74178;DHT22;62540;48.456;-4.456;2023-05-10T10:35:50;22.37;52.75
74178;DHT22;62540;48.456;-4.456;2023-05-10T10:38:17;22.14;51.53
74178;DHT22;62540;48.456;-4.456;2023-05-10T10:40:42;22.18;53.19
74178;DHT22;62540;48.456;-4.456;2023-05-10T10:43:25;22.07;51.32
74178;DHT22;62540;48.456;-4.456;2023-05-10T10:46:10;22.00;51.56
74178;DHT22;62540;48.456;-4.456;2023-05-10T10:48:36;22.00;52.54
74178;DHT22;62540;48.456;-4.456;2023-05-10T10:51:02;21.96;51.35
74178;DHT22;62540;48.456;-4.456;2023-05-10T10:53:28;21.85;51.99
74178;DHT22;62540;48.456;-4.456;2023-05-10T10:56:09;21.68;51.34
74178;DHT22;62540;48.456;-4.456;2023-05-10T10:58:36;21.61;52.31
74178;DHT22;62540;48.456;-4.456;2023-05-10T11:01:18;21.54;52.93
74178;DHT22;62540;48.456;-4.456;2023-05-10T11:06:34;21.31;53.18
74178;DHT22;62540;48.456;-4.456;2023-05-10T11:09:10;21.24;53.84
74178;DHT22;62540;48.456;-4.456;2023-05-10T11:11:48;21.10;52.96
74178;DHT22;62540;48.456;-4.456;2023-05-10T11:14:14;21.01;54.27
74178;DHT22;62540;48.456;-4.456;2023-05-10T11:16:43;20.93;53.55
74178;DHT22;62540;48.456;-4.456;2023-05-10T11:19:11;21.08;54.20
74178;DHT22;62540;48.456;-4.456;2023-05-10T11:21:48;21.30;54.38
74178;DHT22;62540;48.456;-4.456;2023-05-10T11:24:20;21.45;52.55
74178;DHT22;62540;48.456;-4.456;2023-05-10T11:26:46;21.66;54.11
74178;DHT22;62540;48.456;-4.456;2023-05-10T11:29:14;22.03;53.76
74178;DHT22;62540;48.456;-4.456;2023-05-10T11:31:47;22.32;53.68
74178;DHT22;62540;48.456;-4.456;2023-05-10T11:34:32;22.45;52.50
74178;DHT22;62540;48.456;-4.456;2023-05-10T11:36:59;22.37;52.00
74178;DHT22;62540;48.456;-4.456;2023-05-10T11:39:29;22.24;49.29
74178;DHT22;62540;48.456;-4.456;2023-05-10T11:41:55;22.10;50.65
74178;DHT22;62540;48.456;-4.456;2023-05-10T11:44:20;21.92;50.84
74178;DHT22;62540;48.456;-4.456;2023-05-10T11:46:46;21.83;52.52
74178;DHT22;62540;48.456;-4.456;2023-05-10T11:49:11;21.88;52.23
74178;DHT22;62540;48.456;-4.456;2023-05-10T11:51:38;21.93;51.48
74178;DHT22;62540;48.456;-4.456;2023-05-10T11:54:09;22.05;51.15
74178;DHT22;62540;48.456;-4.456;2023-05-10T11:56:35;22.10;50.69
74178;DHT22;62540;48.456;-4.456;2023-05-10T11:59:01;22.14;50.69
74178;DHT22;62540;48.456;-4.456;2023-05-10T12:01:28;22.17;51.35
74178;DHT22;62540;48.456;-4.456;2023-05-10T12:03:55;22.30;51.08
74178;DHT22;62540;48.456;-4.456;2023-05-10T12:06:30;22.27;50.06
74178;DHT22;62540;48.456;-4.456;2023-05-10T12:08:56;22.29;50.09
74178;DHT22;62540;48.456;-4.456;2023-05-10T12:11:25;22.18;50.16
74178;DHT22;62540;48.456;-4.456;2023-05-10T12:13:50;22.09;51.24
74178;DHT22;62540;48.456;-4.456;2023-05-10T12:16:21;21.96;50.63
74178;DHT22;62540;48.456;-4.456;2023-05-10T12:18:51;21.95;51.12
74178;DHT22;62540;48.456;-4.456;2023-05-10T12:21:18;22.05;51.70
74178;DHT22;62540;48.456;-4.456;2023-05-10T12:23:46;22.16;50.77
74178;DHT22;62540;48.456;-4.456;2023-05-10T12:26:12;22.23;51.57
74178;DHT22;62540;48.456;-4.456;2023-05-10T12:28:38;22.37;51.86
74178;DHT22;62540;48.456;-4.456;2023-05-10T12:31:05;22.58;51.25
74178;DHT22;62540;48.456;-4.456;2023-05-10T12:33:42;22.44;48.95
74178;DHT22;62540;48.456;-4.456;2023-05-10T12:36:09;22.30;50.62
74178;DHT22;62540;48.456;-4.456;2023-05-10T12:38:40;22.06;50.63
74178;DHT22;62540;48.456;-4.456;2023-05-10T12:41:12;21.86;50.48
74178;DHT22;62540;48.456;-4.456;2023-05-10T12:43:38;21.79;51.92
74178;DHT22;62540;48.456;-4.456;2023-05-10T12:46:08;22.03;52.85
74178;DHT22;62540;48.456;-4.456;2023-05-10T12:48:35;22.20;51.62
74178;DHT22;62540;48.456;-4.456;2023-05-10T12:51:01;21.95;50.22
74178;DHT22;62540;48.456;-4.456;2023-05-10T12:53:27;21.72;51.73
74178;DHT22;62540;48.456;-4.456;2023-05-10T12:55:52;21.49;51.90
74178;DHT22;62540;48.456;-4.456;2023-05-10T12:58:18;21.37;52.46
74178;DHT22;62540;48.456;-4.456;2023-05-10T13:00:44;21.23;52.98
74178;DHT22;62540;48.456;-4.456;2023-05-10T13:03:10;21.31;52.88
74178;DHT22;62540;48.456;-4.456;2023-05-10T13:05:36;21.54;52.26
74178;DHT22;62540;48.456;-4.456;2023-05-10T13:08:01;21.90;52.55
74178;DHT22;62540;48.456;-4.456;2023-05-10T13:10:29;22.24;52.08
74178;DHT22;62540;48.456;-4.456;2023-05-10T13:12:55;22.37;50.08
74178;DHT22;62540;48.456;-4.456;2023-05-10T13:15:21;22.37;51.21
74178;DHT22;62540;48.456;-4.456;2023-05-10T13:17:46;22.23;50.88
74178;DHT22;62540;48.456;-4.456;2023-05-10T13:20:11;22.13;50.66
74178;DHT22;62540;48.456;-4.456;2023-05-10T13:22:37;21.89;50.87
74178;DHT22;62540;48.456;-4.456;2023-05-10T13:25:02;21.81;51.26
74178;DHT22;62540;48.456;-4.456;2023-05-10T13:27:28;21.85;52.04
74178;DHT22;62540;48.456;-4.456;2023-05-10T13:29:53;21.93;50.92
74178;DHT22;62540;48.456;-4.456;2023-05-10T13:32:20;22.05;51.55
74178;DHT22;62540;48.456;-4.456;2023-05-10T13:34:45;22.12;51.50
74178;DHT22;62540;48.456;-4.456;2023-05-10T13:37:11;22.13;51.13
74178;DHT22;62540;48.456;-4.456;2023-05-10T13:39:36;22.00;52.00
74178;DHT22;62540;48.456;-4.456;2023-05-10T13:42:03;21.95;51.33
74178;DHT22;62540;48.456;-4.456;2023-05-10T13:44:29;21.95;51.59
74178;DHT22;62540;48.456;-4.456;2023-05-10T13:46:55;21.97;51.40
74178;DHT22;62540;48.456;-4.456;2023-05-10T13:49:20;21.99;50.37
74178;DHT22;62540;48.456;-4.456;2023-05-10T13:51:47;21.83;50.51
74178;DHT22;62540;48.456;-4.456;2023-05-10T13:54:12;21.68;51.31
74178;DHT22;62540;48.456;-4.456;2023-05-10T13:56:38;21.54;51.72
74178;DHT22;62540;48.456;-4.456;2023-05-10T13:59:03;21.51;52.16
74178;DHT22;62540;48.456;-4.456;2023-05-10T14:01:28;21.48;51.98
74178;DHT22;62540;48.456;-4.456;2023-05-10T14:03:54;21.47;51.92
74178;DHT22;62540;48.456;-4.456;2023-05-10T14:06:19;21.42;51.93
74178;DHT22;62540;48.456;-4.456;2023-05-10T14:08:45;21.37;52.62
74178;DHT22;62540;48.456;-4.456;2023-05-10T14:11:10;21.42;52.79
74178;DHT22;62540;48.456;-4.456;2023-05-10T14:13:36;21.51;52.36
74178;DHT22;62540;48.456;-4.456;2023-05-10T14:16:01;21.61;52.40
74178;DHT22;62540;48.456;-4.456;2023-05-10T14:18:27;21.63;52.35
74178;DHT22;62540;48.456;-4.456;2023-05-10T14:20:53;21.71;52.57
74178;DHT22;62540;48.456;-4.456;2023-05-10T14:23:18;21.82;52.43
74178;DHT22;62540;48.456;-4.456;2023-05-10T14:25:52;21.88;50.75
74178;DHT22;62540;48.456;-4.456;2023-05-10T14:28:17;21.88;49.41
74178;DHT22;62540;48.456;-4.456;2023-05-10T14:30:43;21.82;51.12
74178;DHT22;62540;48.456;-4.456;2023-05-10T14:33:09;21.86;50.60
74178;DHT22;62540;48.456;-4.456;2023-05-10T14:35:35;21.83;51.24
74178;DHT22;62540;48.456;-4.456;2023-05-10T14:38:01;21.59;50.69
74178;DHT22;62540;48.456;-4.456;2023-05-10T14:40:27;21.54;52.05
74178;DHT22;62540;48.456;-4.456;2023-05-10T14:42:53;21.59;52.09
74178;DHT22;62540;48.456;-4.456;2023-05-10T14:45:20;21.72;52.27
74178;DHT22;62540;48.456;-4.456;2023-05-10T14:47:45;21.82;51.87
74178;DHT22;62540;48.456;-4.456;2023-05-10T14:50:11;21.86;51.51
74178;DHT22;62540;48.456;-4.456;2023-05-10T14:52:36;21.79;51.15
74178;DHT22;62540;48.456;-4.456;2023-05-10T14:55:01;21.75;52.19
74178;DHT22;62540;48.456;-4.456;2023-05-10T14:57:27;21.71;52.27
74178;DHT22;62540;48.456;-4.456;2023-05-10T14:59:55;21.69;52.32
74178;DHT22;62540;48.456;-4.456;2023-05-10T15:02:20;21.59;50.33
74178;DHT22;62540;48.456;-4.456;2023-05-10T15:04:46;21.51;50.05
74178;DHT22;62540;48.456;-4.456;2023-05-10T15:07:12;21.41;48.02
74178;DHT22;62540;48.456;-4.456;2023-05-10T15:09:39;21.30;49.49
74178;DHT22;62540;48.456;-4.456;2023-05-10T15:12:05;21.27;50.72
74178;DHT22;62540;48.456;-4.456;2023-05-10T15:14:30;21.24;50.73
74178;DHT22;62540;48.456;-4.456;2023-05-10T15:16:56;21.24;50.88
74178;DHT22;62540;48.456;-4.456;2023-05-10T15:19:21;21.27;50.77
74178;DHT22;62540;48.456;-4.456;2023-05-10T15:21:47;21.37;51.02
74178;DHT22;62540;48.456;-4.456;2023-05-10T15:24:13;21.32;50.78
74178;DHT22;62540;48.456;-4.456;2023-05-10T15:26:38;21.39;50.95
74178;DHT22;62540;48.456;-4.456;2023-05-10T15:29:03;21.61;50.74
74178;DHT22;62540;48.456;-4.456;2023-05-10T15:31:29;21.63;49.41
74178;DHT22;62540;48.456;-4.456;2023-05-10T15:33:57;21.61;49.75
74178;DHT22;62540;48.456;-4.456;2023-05-10T15:36:24;21.55;49.59